Time;durP1;ratioP1;P1;durP2;ratioP2;P2;SDS_P1;SDS_P2;PMS_P1;PMS_P2;Temp;Humidity;BMP_temperature;BMP_pressure;BME280_temperature;BME280_humidity;BME280_pressure;Samples;Min_cycle;Max_cycle;Signal;HPM_P1;HPM_P2
2023/06/12 00:02:17;;;;;;;2.90;2.47;;;22.40;99.90;;;;;;4938485;29;20212;-91
2023/06/12 00:04:49;;;;;;;3.37;2.97;;;22.10;99.90;;;;;;4939963;29;20662;-91
2023/06/12 00:07:21;;;;;;;3.47;2.90;;;22.20;99.90;;;;;;4938423;29;20300;-92
2023/06/12 00:09:53;;;;;;;2.70;2.50;;;22.00;99.90;;;;;;4937094;29;20283;-92
2023/06/12 00:12:24;;;;;;;3.37;2.97;;;21.90;99.90;;;;;;4938618;29;20227;-92
2023/06/12 00:14:56;;;;;;;3.10;2.63;;;21.90;99.90;;;;;;4935931;29;20223;-91
2023/06/12 00:17:29;;;;;;;2.60;2.40;;;21.90;99.90;;;;;;4938822;29;20642;-91
2023/06/12 00:20:00;;;;;;;3.40;2.50;;;21.80;99.90;;;;;;4938224;29;20259;-92
2023/06/12 00:22:32;;;;;;;3.57;2.90;;;21.70;99.90;;;;;;4938038;29;20208;-92
2023/06/12 00:25:03;;;;;;;3.20;2.70;;;21.70;99.90;;;;;;4939015;29;20208;-92
2023/06/12 00:27:35;;;;;;;3.47;3.17;;;21.50;99.90;;;;;;4941860;29;20227;-90
2023/06/12 00:30:07;;;;;;;3.20;2.90;;;21.60;99.90;;;;;;4943453;29;20232;-92
2023/06/12 00:32:41;;;;;;;4.03;3.00;;;21.90;99.90;;;;;;4944690;29;20216;-92
2023/06/12 00:35:15;;;;;;;3.93;2.93;;;22.10;99.90;;;;;;4955132;28;20200;-90
2023/06/12 00:37:47;;;;;;;3.07;2.87;;;22.30;99.90;;;;;;4961494;28;20273;-96
2023/06/12 00:40:18;;;;;;;3.83;2.90;;;22.20;99.90;;;;;;4962726;28;20200;-92
2023/06/12 00:42:51;;;;;;;3.90;3.20;;;22.40;99.90;;;;;;4960999;29;20220;-90
2023/06/12 00:45:24;;;;;;;3.70;3.37;;;22.30;99.90;;;;;;4949648;29;20244;-91
2023/06/12 00:47:59;;;;;;;3.43;3.13;;;22.50;99.90;;;;;;4930263;29;20205;-92
2023/06/12 00:50:32;;;;;;;3.53;3.20;;;23.00;99.90;;;;;;4933486;29;20326;-92
2023/06/12 00:53:03;;;;;;;3.73;3.10;;;23.50;99.90;;;;;;4943408;29;20307;-93
2023/06/12 00:55:36;;;;;;;3.07;2.77;;;23.30;99.90;;;;;;4944504;29;20261;-92
2023/06/12 00:58:08;;;;;;;3.50;3.10;;;23.20;99.90;;;;;;4941000;29;20229;-92
2023/06/12 01:00:40;;;;;;;3.00;2.70;;;23.20;99.90;;;;;;4941985;29;20283;-92
2023/06/12 01:03:15;;;;;;;5.23;3.10;;;23.10;99.90;;;;;;4941658;29;20240;-92
2023/06/12 01:05:48;;;;;;;3.47;2.90;;;22.80;99.90;;;;;;4941115;29;20649;-91
2023/06/12 01:08:26;;;;;;;4.30;3.13;;;22.50;99.90;;;;;;4940649;29;20219;-92
2023/06/12 01:11:02;;;;;;;2.90;2.70;;;22.30;99.90;;;;;;4940937;29;20771;-92
2023/06/12 01:13:35;;;;;;;3.53;3.17;;;22.10;99.90;;;;;;4927781;29;20216;-92
2023/06/12 01:16:06;;;;;;;3.20;2.90;;;21.90;99.90;;;;;;4925849;29;20205;-91
2023/06/12 01:18:41;;;;;;;4.33;3.50;;;22.00;99.90;;;;;;4921230;29;20761;-92
2023/06/12 01:21:19;;;;;;;6.70;3.10;;;22.20;99.90;;;;;;4922647;29;20264;-91
2023/06/12 01:24:21;;;;;;;3.57;3.27;;;22.40;99.90;;;;;;4921643;29;20244;-91
2023/06/12 01:27:23;;;;;;;3.70;3.30;;;22.20;99.90;;;;;;4922415;29;20268;-92
2023/06/12 01:30:19;;;;;;;4.17;3.77;;;22.00;99.90;;;;;;4930187;29;20244;-93
2023/06/12 01:32:56;;;;;;;5.70;5.20;;;22.10;99.90;;;;;;4939714;29;20283;-92
2023/06/12 01:35:32;;;;;;;4.43;4.00;;;21.90;99.90;;;;;;4942027;29;20239;-92
2023/06/12 01:38:13;;;;;;;3.80;3.33;;;21.60;99.90;;;;;;4939809;29;20239;-91
2023/06/12 01:40:46;;;;;;;3.47;3.23;;;21.40;99.90;;;;;;4940595;29;20219;-93
2023/06/12 01:43:18;;;;;;;17.27;15.60;;;21.50;99.90;;;;;;4941641;29;20681;-91
2023/06/12 01:45:49;;;;;;;15.10;13.60;;;21.40;99.90;;;;;;4939159;29;20219;-92
2023/06/12 01:48:23;;;;;;;4.13;3.50;;;21.80;99.90;;;;;;4940177;29;20243;-91
2023/06/12 01:51:07;;;;;;;3.53;3.23;;;22.90;99.90;;;;;;4940439;29;20236;-91
2023/06/12 01:53:43;;;;;;;3.30;3.10;;;23.60;99.90;;;;;;4940553;29;20308;-92
2023/06/12 01:56:24;;;;;;;4.13;2.83;;;24.10;99.90;;;;;;4940616;29;20300;-91
2023/06/12 01:58:56;;;;;;;2.90;2.70;;;23.90;99.90;;;;;;4939889;29;20649;-92
2023/06/12 02:01:29;;;;;;;3.53;2.77;;;24.10;99.90;;;;;;4940919;29;20284;-91
2023/06/12 02:04:02;;;;;;;3.33;3.03;;;23.60;99.90;;;;;;4940348;29;20216;-91
2023/06/12 02:06:34;;;;;;;3.23;2.93;;;23.30;99.90;;;;;;4938103;29;20271;-93
2023/06/12 02:09:06;;;;;;;4.50;2.97;;;23.00;99.90;;;;;;4920223;29;20219;-91
2023/06/12 02:11:37;;;;;;;3.47;3.17;;;22.50;99.90;;;;;;4933284;29;20232;-91
2023/06/12 02:14:10;;;;;;;3.70;2.77;;;22.10;99.90;;;;;;4937788;29;20215;-91
2023/06/12 02:16:45;;;;;;;5.83;3.20;;;22.20;99.90;;;;;;4920828;29;20209;-91
2023/06/12 02:19:18;;;;;;;3.37;2.90;;;22.30;99.90;;;;;;4919262;29;20264;-92
2023/06/12 02:21:52;;;;;;;4.80;3.30;;;22.20;99.90;;;;;;4921450;29;20686;-92
2023/06/12 02:24:28;;;;;;;2.80;2.60;;;22.20;99.90;;;;;;4933718;29;20216;-92
2023/06/12 02:27:00;;;;;;;3.00;2.80;;;22.00;99.90;;;;;;4939194;29;20236;-92
2023/06/12 02:29:31;;;;;;;3.37;3.07;;;21.10;99.90;;;;;;4938904;29;20227;-91
2023/06/12 02:32:02;;;;;;;3.70;3.17;;;20.80;99.90;;;;;;4939799;29;20236;-92
2023/06/12 02:34:36;;;;;;;3.50;3.17;;;20.50;99.90;;;;;;4939947;29;20224;-91
2023/06/12 02:37:10;;;;;;;4.10;3.70;;;20.20;99.90;;;;;;4924113;29;20221;-91
2023/06/12 02:39:41;;;;;;;3.23;3.00;;;20.10;99.90;;;;;;4920889;29;20213;-91
2023/06/12 02:42:14;;;;;;;3.60;3.30;;;20.00;99.90;;;;;;4921316;29;20213;-91
2023/06/12 02:44:46;;;;;;;3.90;3.50;;;19.90;99.90;;;;;;4928931;29;20181;-92
2023/06/12 02:47:18;;;;;;;3.17;2.87;;;19.70;99.90;;;;;;4949050;28;20219;-91
2023/06/12 02:49:52;;;;;;;3.27;2.97;;;19.70;99.90;;;;;;4953871;29;20209;-92
2023/06/12 02:52:23;;;;;;;3.53;2.90;;;19.60;99.90;;;;;;4924160;29;20631;-92
2023/06/12 02:54:55;;;;;;;4.87;3.40;;;19.70;99.90;;;;;;4921311;29;20263;-91
2023/06/12 02:57:27;;;;;;;3.20;2.90;;;19.60;99.90;;;;;;4938168;29;20295;-90
2023/06/12 02:59:59;;;;;;;3.80;3.47;;;19.60;99.90;;;;;;4954031;29;20219;-92
2023/06/12 03:02:30;;;;;;;3.63;3.30;;;19.50;99.90;;;;;;4941513;28;20299;-92
2023/06/12 03:05:04;;;;;;;3.60;3.30;;;19.40;99.90;;;;;;4938538;29;20220;-90
2023/06/12 03:07:36;;;;;;;3.33;3.00;;;19.40;99.90;;;;;;4942920;29;20298;-92
2023/06/12 03:10:09;;;;;;;3.93;3.27;;;19.40;99.90;;;;;;4957529;28;20259;-91
2023/06/12 03:12:41;;;;;;;7.27;5.27;;;19.20;99.90;;;;;;4949624;28;20212;-92
2023/06/12 03:15:14;;;;;;;6.27;4.37;;;19.10;99.90;;;;;;4939439;29;20217;-91
2023/06/12 03:17:45;;;;;;;3.93;3.63;;;19.10;99.90;;;;;;4939341;29;20595;-92
2023/06/12 03:20:19;;;;;;;3.63;3.10;;;19.00;99.90;;;;;;4940914;29;20216;-90
2023/06/12 03:22:51;;;;;;;3.00;2.80;;;18.90;99.90;;;;;;4921698;29;20208;-91
2023/06/12 03:25:22;;;;;;;3.37;3.03;;;18.90;99.90;;;;;;4926277;29;20649;-92
2023/06/12 03:27:54;;;;;;;4.30;3.10;;;18.80;99.90;;;;;;4939633;29;20239;-91
2023/06/12 03:30:25;;;;;;;3.17;2.93;;;18.80;99.90;;;;;;4938815;29;20343;-92
2023/06/12 03:32:57;;;;;;;3.50;3.20;;;18.70;99.90;;;;;;4927480;29;20240;-91
2023/06/12 03:35:32;;;;;;;3.90;3.50;;;18.60;99.90;;;;;;4951280;29;20212;-91
2023/06/12 03:38:03;;;;;;;4.33;3.40;;;18.60;99.90;;;;;;4935236;29;20212;-90
2023/06/12 03:40:35;;;;;;;3.97;3.53;;;18.50;99.90;;;;;;4942231;29;20275;-91
2023/06/12 03:43:08;;;;;;;3.50;3.17;;;18.40;99.90;;;;;;4940108;29;20212;-91
2023/06/12 03:45:40;;;;;;;3.60;3.30;;;18.30;99.90;;;;;;4940585;29;20212;-90
2023/06/12 03:48:11;;;;;;;4.17;3.30;;;18.30;99.90;;;;;;4960278;28;20570;-91
2023/06/12 03:50:45;;;;;;;3.67;3.10;;;18.30;99.90;;;;;;4960092;28;20752;-91
2023/06/12 03:53:18;;;;;;;4.07;3.30;;;18.20;99.90;;;;;;4940022;28;20207;-90
2023/06/12 03:55:49;;;;;;;4.33;3.10;;;18.10;99.90;;;;;;4921008;29;20212;-90
2023/06/12 03:58:20;;;;;;;4.30;3.23;;;18.10;99.90;;;;;;4925671;29;20718;-89
2023/06/12 04:00:52;;;;;;;3.40;3.10;;;18.00;99.90;;;;;;4934504;29;20232;-89
2023/06/12 04:03:24;;;;;;;4.07;3.47;;;18.00;99.90;;;;;;4933105;29;20297;-88
2023/06/12 04:05:58;;;;;;;3.60;3.30;;;17.80;99.90;;;;;;4928205;29;20209;-89
2023/06/12 04:08:30;;;;;;;5.27;3.23;;;17.80;99.90;;;;;;4927181;29;20618;-89
2023/06/12 04:11:03;;;;;;;3.70;3.40;;;17.70;99.90;;;;;;4933583;29;20240;-89
2023/06/12 04:13:34;;;;;;;6.47;3.93;;;17.50;99.90;;;;;;4931394;29;20214;-89
2023/06/12 04:16:06;;;;;;;3.97;3.30;;;17.50;99.90;;;;;;4931680;29;20629;-89
2023/06/12 04:18:38;;;;;;;4.87;3.87;;;17.40;99.90;;;;;;4932985;29;20208;-90
2023/06/12 04:21:12;;;;;;;5.00;3.60;;;17.30;99.90;;;;;;4921754;29;20295;-90
2023/06/12 04:23:47;;;;;;;4.77;3.73;;;17.20;99.90;;;;;;4937939;29;20217;-88
2023/06/12 04:26:20;;;;;;;3.43;3.13;;;17.10;99.90;;;;;;4937097;29;20670;-89
2023/06/12 04:28:53;;;;;;;4.03;3.60;;;17.00;99.90;;;;;;4936121;29;20208;-89
2023/06/12 04:31:26;;;;;;;5.60;3.27;;;17.00;99.90;;;;;;4927720;29;20334;-90
2023/06/12 04:33:58;;;;;;;3.67;3.33;;;16.90;99.90;;;;;;4936619;29;20204;-89
2023/06/12 04:36:33;;;;;;;4.27;3.87;;;16.80;99.90;;;;;;4935326;29;20672;-90
2023/06/12 04:39:05;;;;;;;4.90;3.60;;;16.70;99.90;;;;;;4930166;29;20208;-91
2023/06/12 04:41:36;;;;;;;4.57;4.17;;;16.70;99.90;;;;;;4935116;29;20646;-89
2023/06/12 04:44:08;;;;;;;3.90;3.47;;;16.60;99.90;;;;;;4928263;29;20205;-88
2023/06/12 04:46:39;;;;;;;4.07;3.70;;;16.60;99.90;;;;;;4935618;29;20208;-90
2023/06/12 04:49:10;;;;;;;3.83;3.50;;;16.50;99.90;;;;;;4939330;29;20219;-89
2023/06/12 04:51:48;;;;;;;4.00;3.60;;;16.40;99.90;;;;;;4934986;29;20612;-88
2023/06/12 04:54:20;;;;;;;4.67;3.40;;;16.40;99.90;;;;;;4931030;29;20204;-89
2023/06/12 04:56:54;;;;;;;5.37;3.87;;;16.30;99.90;;;;;;4955149;29;20271;-90
2023/06/12 04:59:26;;;;;;;4.20;3.63;;;16.30;99.90;;;;;;4954885;29;20204;-90
2023/06/12 05:01:58;;;;;;;4.93;3.70;;;16.30;99.90;;;;;;4955686;29;20248;-90
2023/06/12 05:04:29;;;;;;;4.67;4.20;;;16.20;99.90;;;;;;4944537;29;20216;-90
2023/06/12 05:07:03;;;;;;;4.87;4.20;;;16.10;99.90;;;;;;4944646;29;20200;-89
2023/06/12 05:09:34;;;;;;;4.33;3.93;;;16.10;99.90;;;;;;4937704;29;20234;-87
2023/06/12 05:12:06;;;;;;;5.00;4.17;;;16.10;99.90;;;;;;4935601;29;20650;-89
2023/06/12 05:14:38;;;;;;;5.20;3.93;;;16.10;99.90;;;;;;4922503;29;20243;-89
2023/06/12 05:17:11;;;;;;;4.90;4.13;;;16.00;99.90;;;;;;4934210;29;20223;-89
2023/06/12 05:19:44;;;;;;;4.73;4.20;;;16.00;99.90;;;;;;4937832;29;20661;-89
2023/06/12 05:22:22;;;;;;;4.73;4.00;;;16.00;99.90;;;;;;4928591;29;20204;-89
2023/06/12 05:24:54;;;;;;;6.93;4.50;;;16.00;99.90;;;;;;4931780;29;20220;-88
2023/06/12 05:27:25;;;;;;;4.93;3.77;;;15.90;99.90;;;;;;4935356;29;20271;-89
2023/06/12 05:29:57;;;;;;;5.63;4.57;;;15.90;99.90;;;;;;4939352;29;20213;-88
2023/06/12 05:32:28;;;;;;;5.77;4.20;;;15.80;99.90;;;;;;4939097;29;20685;-88
2023/06/12 05:35:00;;;;;;;6.47;4.60;;;15.80;99.90;;;;;;4938691;29;20235;-88
2023/06/12 05:37:32;;;;;;;6.13;4.33;;;15.70;99.90;;;;;;4939112;29;20250;-88
2023/06/12 05:40:05;;;;;;;5.20;4.70;;;15.70;99.90;;;;;;4920105;29;20236;-88
2023/06/12 05:42:36;;;;;;;5.73;4.53;;;15.70;99.90;;;;;;4927151;29;20269;-89
2023/06/12 05:45:09;;;;;;;4.77;4.20;;;15.60;99.90;;;;;;4930323;29;20238;-90
2023/06/12 05:47:40;;;;;;;5.17;4.17;;;15.60;99.90;;;;;;4940074;29;20296;-89
2023/06/12 05:50:12;;;;;;;5.20;4.70;;;15.60;99.90;;;;;;4940041;29;20216;-91
2023/06/12 05:52:46;;;;;;;4.87;4.43;;;15.60;99.90;;;;;;4917109;29;20292;-90
2023/06/12 05:55:18;;;;;;;5.63;5.07;;;15.60;99.90;;;;;;4935095;29;20215;-90
2023/06/12 05:57:49;;;;;;;5.50;4.87;;;15.50;99.90;;;;;;4936043;29;20658;-90
2023/06/12 06:00:23;;;;;;;5.13;4.63;;;15.50;99.90;;;;;;4938221;29;20623;-90
2023/06/12 06:02:55;;;;;;;5.23;4.67;;;15.50;99.90;;;;;;4945584;29;20208;-90
2023/06/12 06:05:30;;;;;;;5.17;4.73;;;15.50;99.90;;;;;;4950170;29;20203;-90
2023/06/12 06:08:03;;;;;;;6.20;4.80;;;15.50;99.90;;;;;;4948209;29;20196;-91
2023/06/12 06:10:34;;;;;;;6.73;4.70;;;15.50;99.90;;;;;;4954566;29;20252;-92
2023/06/12 06:13:08;;;;;;;5.50;4.83;;;15.40;99.90;;;;;;4950130;29;20228;-90
2023/06/12 06:15:39;;;;;;;5.07;4.67;;;15.40;99.90;;;;;;4947732;29;20255;-90
2023/06/12 06:18:11;;;;;;;6.23;4.97;;;15.40;99.90;;;;;;4938781;29;20662;-90
2023/06/12 06:20:42;;;;;;;5.60;4.63;;;15.30;99.90;;;;;;4942051;29;20223;-90
2023/06/12 06:23:16;;;;;;;5.90;5.00;;;15.30;99.90;;;;;;4941354;29;20212;-91
2023/06/12 06:25:48;;;;;;;6.97;4.97;;;15.30;99.90;;;;;;4940880;29;20576;-90
2023/06/12 06:28:20;;;;;;;5.90;5.00;;;15.30;99.90;;;;;;4938913;29;20204;-90
2023/06/12 06:30:51;;;;;;;5.80;5.30;;;15.30;99.90;;;;;;4939111;29;20216;-90
2023/06/12 06:33:23;;;;;;;5.73;4.80;;;15.20;99.90;;;;;;4937229;29;20239;-90
2023/06/12 06:35:55;;;;;;;5.43;4.93;;;15.10;99.90;;;;;;4935774;29;20283;-90
2023/06/12 06:38:29;;;;;;;5.60;5.00;;;15.10;99.90;;;;;;4934439;29;20208;-88
2023/06/12 06:41:00;;;;;;;5.97;5.17;;;15.10;99.90;;;;;;4938706;29;20861;-89
2023/06/12 06:43:32;;;;;;;6.13;5.23;;;15.00;99.90;;;;;;4928037;29;20240;-90
2023/06/12 06:46:03;;;;;;;5.70;5.20;;;15.00;99.90;;;;;;4937955;29;21039;-91
2023/06/12 06:48:38;;;;;;;5.83;5.00;;;15.00;99.90;;;;;;4936561;29;20216;-90
2023/06/12 06:51:11;;;;;;;5.60;5.10;;;15.00;99.90;;;;;;4937549;29;20662;-90
2023/06/12 06:53:45;;;;;;;5.70;5.10;;;15.00;99.90;;;;;;4938573;29;20292;-91
2023/06/12 06:56:16;;;;;;;5.77;5.20;;;14.90;99.90;;;;;;4931020;29;20272;-89
2023/06/12 06:58:48;;;;;;;6.50;5.90;;;14.90;99.90;;;;;;4938333;29;20303;-92
2023/06/12 07:01:19;;;;;;;7.40;5.57;;;14.90;99.90;;;;;;4939032;29;20565;-92
2023/06/12 07:03:53;;;;;;;5.70;5.20;;;14.90;99.90;;;;;;4939366;29;20216;-89
2023/06/12 07:06:26;;;;;;;7.53;5.37;;;14.90;99.90;;;;;;4948453;29;20208;-89
2023/06/12 07:08:59;;;;;;;6.17;5.50;;;14.90;99.90;;;;;;4954901;29;20188;-89
2023/06/12 07:11:30;;;;;;;5.70;4.83;;;14.90;99.90;;;;;;4958593;29;20204;-89
2023/06/12 07:14:02;;;;;;;6.60;5.77;;;14.90;99.90;;;;;;4922491;29;20223;-89
2023/06/12 07:16:34;;;;;;;6.73;5.73;;;14.80;99.90;;;;;;4948884;29;20211;-91
2023/06/12 07:19:05;;;;;;;5.90;5.23;;;14.80;99.90;;;;;;4932405;29;20216;-90
2023/06/12 07:21:37;;;;;;;6.10;5.40;;;14.70;99.90;;;;;;4935458;29;20239;-90
2023/06/12 07:24:12;;;;;;;5.90;5.30;;;14.70;99.90;;;;;;4933413;29;20219;-89
2023/06/12 07:26:43;;;;;;;6.00;5.50;;;14.60;99.90;;;;;;4931420;29;20247;-90
2023/06/12 07:29:15;;;;;;;6.43;5.30;;;14.60;99.90;;;;;;4933224;29;20215;-89
2023/06/12 07:31:47;;;;;;;6.43;5.20;;;14.60;99.90;;;;;;4928361;29;20216;-88
2023/06/12 07:34:19;;;;;;;6.40;5.80;;;14.60;99.90;;;;;;4937025;29;20232;-90
2023/06/12 07:36:50;;;;;;;5.67;5.20;;;14.50;99.90;;;;;;4920730;29;20300;-88
2023/06/12 07:39:23;;;;;;;6.13;5.43;;;14.50;99.90;;;;;;4930262;29;20653;-90
2023/06/12 07:41:54;;;;;;;5.67;5.03;;;14.40;99.90;;;;;;4931870;29;20215;-88
2023/06/12 07:44:25;;;;;;;5.53;4.87;;;14.50;99.90;;;;;;4925737;29;20682;-89
2023/06/12 07:46:57;;;;;;;6.10;5.43;;;14.40;99.90;;;;;;4925778;29;20214;-88
2023/06/12 07:49:30;;;;;;;6.07;4.97;;;14.40;99.90;;;;;;4934294;29;20217;-89
2023/06/12 07:52:02;;;;;;;7.23;5.40;;;14.50;99.90;;;;;;4936878;29;20312;-89
2023/06/12 07:54:35;;;;;;;9.47;5.30;;;14.40;99.90;;;;;;4928966;29;20242;-90
2023/06/12 07:57:06;;;;;;;6.43;5.70;;;14.40;99.90;;;;;;4936856;29;20216;-90
2023/06/12 07:59:38;;;;;;;6.03;5.37;;;14.40;99.90;;;;;;4917644;29;20669;-90
2023/06/12 08:02:09;;;;;;;5.80;5.30;;;14.30;99.90;;;;;;4918625;29;20232;-90
2023/06/12 08:04:42;;;;;;;5.90;5.40;;;14.30;99.90;;;;;;4937003;29;20346;-90
2023/06/12 08:07:15;;;;;;;8.33;5.50;;;14.30;99.90;;;;;;4933996;29;20243;-89
2023/06/12 08:09:48;;;;;;;5.77;5.27;;;14.30;99.90;;;;;;4931906;29;20661;-90
2023/06/12 08:12:20;;;;;;;5.97;5.30;;;14.20;99.90;;;;;;4936597;29;20208;-90
2023/06/12 08:14:53;;;;;;;5.83;5.33;;;14.20;99.90;;;;;;4929379;29;20212;-90
2023/06/12 08:17:24;;;;;;;7.67;5.87;;;14.20;99.90;;;;;;4930146;29;20665;-90
2023/06/12 08:19:56;;;;;;;5.93;5.40;;;14.20;99.90;;;;;;4928521;29;20275;-90
2023/06/12 08:22:27;;;;;;;6.13;5.33;;;14.20;99.90;;;;;;4922476;29;20223;-89
2023/06/12 08:25:03;;;;;;;5.80;5.30;;;14.10;99.90;;;;;;4935600;29;20665;-89
2023/06/12 08:27:34;;;;;;;8.70;5.43;;;14.10;99.90;;;;;;4924024;29;20632;-90
2023/06/12 08:30:06;;;;;;;8.10;6.00;;;14.00;99.90;;;;;;4919268;29;20209;-89
2023/06/12 08:32:38;;;;;;;6.13;5.53;;;14.00;99.90;;;;;;4935039;29;20220;-90
2023/06/12 08:35:10;;;;;;;5.87;5.27;;;14.00;99.90;;;;;;4926369;29;20263;-89
2023/06/12 08:37:41;;;;;;;5.83;5.23;;;14.00;99.90;;;;;;4938147;29;20299;-90
2023/06/12 08:40:17;;;;;;;6.40;5.87;;;14.00;99.90;;;;;;4932904;29;20214;-91
2023/06/12 08:42:52;;;;;;;5.80;5.30;;;14.00;99.90;;;;;;4935066;29;20216;-88
2023/06/12 08:45:28;;;;;;;5.80;5.30;;;14.00;99.90;;;;;;4927826;29;20235;-89
2023/06/12 08:47:59;;;;;;;6.40;5.40;;;14.00;99.90;;;;;;4923258;29;20547;-89
2023/06/12 08:50:31;;;;;;;5.37;4.83;;;14.00;99.90;;;;;;4947190;29;20307;-89
2023/06/12 08:53:05;;;;;;;6.03;5.53;;;14.00;99.90;;;;;;4937598;29;20336;-88
2023/06/12 08:55:42;;;;;;;6.23;5.63;;;13.90;99.90;;;;;;4936833;29;20313;-89
2023/06/12 08:58:14;;;;;;;6.47;5.77;;;13.90;99.90;;;;;;4939641;29;20210;-89
2023/06/12 09:00:46;;;;;;;6.40;5.80;;;13.80;99.90;;;;;;4940079;28;20201;-90
2023/06/12 09:03:17;;;;;;;7.03;6.33;;;13.80;99.90;;;;;;4942549;29;20216;-88
2023/06/12 09:05:50;;;;;;;6.70;6.10;;;13.80;99.90;;;;;;4931700;29;20223;-90
2023/06/12 09:08:21;;;;;;;5.97;5.40;;;13.80;99.90;;;;;;4937005;29;20260;-91
2023/06/12 09:10:55;;;;;;;7.67;6.40;;;13.80;99.90;;;;;;4938899;29;20316;-89
2023/06/12 09:13:40;;;;;;;7.07;6.40;;;13.70;99.90;;;;;;4940619;29;20235;-90
2023/06/12 09:16:16;;;;;;;7.50;6.40;;;13.70;99.90;;;;;;4933381;29;20228;-90
2023/06/12 09:18:53;;;;;;;6.83;6.23;;;13.70;99.90;;;;;;4959166;29;20232;-89
2023/06/12 09:21:25;;;;;;;6.53;5.53;;;13.70;99.90;;;;;;4960959;29;20259;-90
2023/06/12 09:23:57;;;;;;;7.70;6.30;;;13.70;99.90;;;;;;4949585;29;20212;-89
2023/06/12 09:26:32;;;;;;;7.27;6.10;;;13.70;99.90;;;;;;4935195;29;20205;-89
2023/06/12 09:29:03;;;;;;;8.27;5.97;;;13.70;99.90;;;;;;4942289;29;20204;-90
2023/06/12 09:31:36;;;;;;;5.77;5.27;;;13.70;99.90;;;;;;4942296;29;20220;-90
2023/06/12 09:34:09;;;;;;;8.30;6.27;;;13.70;99.90;;;;;;4942703;29;20228;-90
2023/06/12 09:36:44;;;;;;;7.33;5.80;;;13.70;99.90;;;;;;4940853;29;20219;-89
2023/06/12 09:39:17;;;;;;;7.83;5.93;;;13.70;99.90;;;;;;4935111;29;20212;-89
2023/06/12 09:41:54;;;;;;;6.87;5.70;;;13.70;99.90;;;;;;4932720;29;20223;-89
2023/06/12 09:44:28;;;;;;;6.47;5.77;;;13.70;99.90;;;;;;4940260;29;20216;-89
2023/06/12 09:47:02;;;;;;;6.33;5.73;;;13.70;99.90;;;;;;4939460;28;20299;-88
2023/06/12 09:49:35;;;;;;;7.23;5.73;;;13.70;99.90;;;;;;4938427;29;20216;-90
2023/06/12 09:52:08;;;;;;;9.10;6.37;;;13.70;99.90;;;;;;4940064;29;20330;-90
2023/06/12 09:54:40;;;;;;;6.90;6.23;;;13.70;99.90;;;;;;4931795;29;20653;-90
2023/06/12 09:57:15;;;;;;;7.30;6.60;;;13.70;99.90;;;;;;4939537;29;20732;-91
2023/06/12 09:59:48;;;;;;;6.90;6.30;;;13.60;99.90;;;;;;4938060;29;20204;-89
2023/06/12 10:02:20;;;;;;;6.57;5.97;;;13.60;99.90;;;;;;4938872;29;20264;-90
2023/06/12 10:05:01;;;;;;;7.80;7.00;;;13.60;99.90;;;;;;4938401;28;20234;-89
2023/06/12 10:07:34;;;;;;;7.70;6.90;;;13.60;99.90;;;;;;4938437;29;20367;-91
2023/06/12 10:10:07;;;;;;;7.10;6.47;;;13.60;99.90;;;;;;4919412;29;20201;-90
2023/06/12 10:12:42;;;;;;;9.60;6.20;;;13.50;99.90;;;;;;4926362;29;20212;-90
2023/06/12 10:15:14;;;;;;;7.00;6.33;;;13.50;99.90;;;;;;4937557;29;20243;-91
2023/06/12 10:17:46;;;;;;;6.93;6.23;;;13.50;99.90;;;;;;4936750;29;20216;-92
2023/06/12 10:20:20;;;;;;;7.47;6.73;;;13.50;99.90;;;;;;4935246;29;20212;-90
2023/06/12 10:22:52;;;;;;;7.87;6.20;;;13.50;99.90;;;;;;4938506;29;20725;-90
2023/06/12 10:25:25;;;;;;;7.23;6.63;;;13.50;99.90;;;;;;4938267;29;20209;-90
2023/06/12 10:27:59;;;;;;;6.57;5.97;;;13.50;99.90;;;;;;4926021;29;20577;-89
2023/06/12 10:30:30;;;;;;;7.13;6.50;;;13.50;99.90;;;;;;4928420;29;20722;-89
2023/06/12 10:33:14;;;;;;;6.50;5.90;;;13.50;99.90;;;;;;4937758;29;20728;-89
2023/06/12 10:35:46;;;;;;;8.40;6.40;;;13.50;99.90;;;;;;4938847;29;20239;-90
2023/06/12 10:38:20;;;;;;;7.63;6.53;;;13.40;99.90;;;;;;4939077;29;20242;-89
2023/06/12 10:40:53;;;;;;;7.17;6.50;;;13.50;99.90;;;;;;4919917;29;20662;-90
2023/06/12 10:43:27;;;;;;;6.77;6.03;;;13.50;99.90;;;;;;4920008;29;20219;-88
2023/06/12 10:45:59;;;;;;;7.10;6.17;;;13.40;99.90;;;;;;4938646;29;20205;-89
2023/06/12 10:48:46;;;;;;;7.10;6.40;;;13.40;99.90;;;;;;4937689;29;20209;-89
2023/06/12 10:51:32;;;;;;;7.40;6.33;;;13.40;99.90;;;;;;4937992;29;20279;-90
2023/06/12 10:54:04;;;;;;;6.47;5.77;;;13.40;99.90;;;;;;4938339;28;20723;-90
2023/06/12 10:56:35;;;;;;;6.93;6.23;;;13.40;99.90;;;;;;4941987;29;20261;-90
2023/06/12 10:59:16;;;;;;;7.23;6.53;;;13.40;99.90;;;;;;4957228;28;20238;-90
2023/06/12 11:01:47;;;;;;;6.83;6.10;;;13.30;99.90;;;;;;4968371;28;20203;-90
2023/06/12 11:04:24;;;;;;;7.93;6.57;;;13.30;99.90;;;;;;4951547;28;20219;-89
2023/06/12 11:06:56;;;;;;;6.77;6.07;;;13.30;99.90;;;;;;4936054;29;20763;-90
2023/06/12 11:09:28;;;;;;;6.67;5.97;;;13.30;99.90;;;;;;4935901;29;20240;-90
2023/06/12 11:12:04;;;;;;;6.43;5.83;;;13.30;99.90;;;;;;4594450;28;9999864;-89
2023/06/12 11:14:40;;;;;;;6.40;5.80;;;13.30;99.90;;;;;;4926156;29;20327;-89
2023/06/12 11:17:13;;;;;;;7.10;6.20;;;13.30;99.90;;;;;;4937983;29;20242;-90
2023/06/12 11:19:45;;;;;;;6.90;6.20;;;13.30;99.90;;;;;;4938288;29;20255;-91
2023/06/12 11:22:16;;;;;;;6.67;5.97;;;13.30;99.90;;;;;;4938331;29;20240;-90
2023/06/12 11:24:48;;;;;;;6.53;5.93;;;13.30;99.90;;;;;;4944914;29;20210;-90
2023/06/12 11:27:20;;;;;;;7.13;6.13;;;13.20;99.90;;;;;;4957091;29;20220;-91
2023/06/12 11:29:53;;;;;;;6.33;5.83;;;13.20;99.90;;;;;;4945886;29;20296;-90
2023/06/12 11:32:39;;;;;;;7.70;6.00;;;13.20;99.90;;;;;;4936355;29;20208;-90
2023/06/12 11:35:12;;;;;;;7.30;6.60;;;13.20;99.90;;;;;;4940122;29;20263;-90
2023/06/12 11:37:43;;;;;;;6.43;5.80;;;13.20;99.90;;;;;;4940529;29;20220;-90
2023/06/12 11:40:17;;;;;;;6.60;5.90;;;13.10;99.90;;;;;;4950215;29;20207;-89
2023/06/12 11:42:51;;;;;;;6.53;5.93;;;13.10;99.90;;;;;;4933017;29;20211;-90
2023/06/12 11:45:24;;;;;;;7.23;6.53;;;13.10;99.90;;;;;;4940537;29;20276;-89
2023/06/12 11:47:57;;;;;;;6.57;5.97;;;13.00;99.90;;;;;;4931840;29;20243;-90
2023/06/12 11:50:34;;;;;;;6.97;6.27;;;12.90;99.90;;;;;;4946436;29;20223;-90
2023/06/12 11:53:05;;;;;;;6.70;6.10;;;12.90;99.90;;;;;;4941745;29;20207;-89
2023/06/12 11:55:37;;;;;;;6.87;6.27;;;12.90;99.90;;;;;;4937776;29;20327;-90
2023/06/12 11:58:11;;;;;;;6.93;6.23;;;12.90;99.90;;;;;;4939023;29;20336;-88
2023/06/12 12:00:49;;;;;;;7.10;6.40;;;12.90;99.90;;;;;;4938186;29;20253;-88
2023/06/12 12:03:23;;;;;;;9.00;5.90;;;12.90;99.90;;;;;;4937859;29;20218;-90
2023/06/12 12:05:54;;;;;;;8.03;6.17;;;12.90;99.90;;;;;;4937511;28;20260;-89
2023/06/12 12:08:27;;;;;;;6.43;5.90;;;12.90;99.90;;;;;;4936540;29;20744;-89
2023/06/12 12:10:59;;;;;;;8.03;6.30;;;12.90;99.90;;;;;;4917273;29;20217;-89
2023/06/12 12:13:32;;;;;;;7.20;6.23;;;12.90;99.90;;;;;;4928272;29;20215;-91
2023/06/12 12:16:14;;;;;;;7.37;6.60;;;12.90;99.90;;;;;;4921678;29;20335;-91
2023/06/12 12:18:45;;;;;;;7.93;6.43;;;12.90;99.90;;;;;;4947938;29;20216;-90
2023/06/12 12:21:18;;;;;;;7.07;6.33;;;12.90;99.90;;;;;;4947920;29;20265;-91
2023/06/12 12:23:49;;;;;;;6.73;5.90;;;13.00;99.90;;;;;;4941557;29;20212;-90
2023/06/12 12:26:22;;;;;;;7.93;6.70;;;13.00;99.90;;;;;;4955782;29;20215;-91
2023/06/12 12:28:53;;;;;;;6.83;5.87;;;13.00;99.90;;;;;;4959850;28;20298;-91
2023/06/12 12:31:26;;;;;;;7.53;6.67;;;13.00;99.90;;;;;;4955534;28;20215;-90
2023/06/12 12:33:57;;;;;;;7.33;6.30;;;12.90;99.90;;;;;;4941543;29;20234;-91
2023/06/12 12:36:29;;;;;;;6.60;6.00;;;12.90;99.90;;;;;;4943652;29;20343;-91
2023/06/12 12:39:00;;;;;;;7.33;6.27;;;12.90;99.90;;;;;;4942960;29;20201;-90
2023/06/12 12:41:32;;;;;;;6.20;5.60;;;12.90;99.90;;;;;;4928282;29;20263;-91
2023/06/12 12:44:03;;;;;;;6.90;6.20;;;12.90;99.90;;;;;;4941216;29;20222;-90
2023/06/12 12:46:37;;;;;;;7.50;6.80;;;12.90;99.90;;;;;;4940616;29;20256;-91
2023/06/12 12:49:09;;;;;;;7.23;6.50;;;12.90;99.90;;;;;;4939083;29;20212;-91
2023/06/12 12:51:40;;;;;;;7.37;6.70;;;12.90;99.90;;;;;;4926838;29;20216;-90
2023/06/12 12:54:12;;;;;;;8.77;6.63;;;12.90;99.90;;;;;;4938431;29;20219;-89
2023/06/12 12:56:45;;;;;;;7.23;6.53;;;12.90;99.90;;;;;;4921155;29;20697;-90
2023/06/12 12:59:16;;;;;;;7.33;6.63;;;12.90;99.90;;;;;;4929486;29;20295;-89
2023/06/12 13:01:49;;;;;;;6.20;5.67;;;13.00;99.90;;;;;;4940350;29;20212;-88
2023/06/12 13:04:21;;;;;;;7.83;6.50;;;13.00;99.90;;;;;;4940696;29;20236;-89
2023/06/12 13:06:53;;;;;;;7.23;6.60;;;13.10;99.90;;;;;;4939810;29;20216;-89
2023/06/12 13:09:24;;;;;;;7.00;6.30;;;13.10;99.90;;;;;;4939572;29;20223;-89
2023/06/12 13:11:57;;;;;;;7.30;6.60;;;13.20;99.90;;;;;;4940585;29;20240;-90
2023/06/12 13:14:28;;;;;;;6.97;6.33;;;13.20;99.90;;;;;;4940021;29;20666;-90
2023/06/12 13:17:02;;;;;;;7.73;6.93;;;13.20;99.90;;;;;;4940751;29;20327;-89